createdAt,value
2023-01-12T00:01:05.743Z,2.00
2023-01-12T00:05:08.582Z,2.08
2023-01-12T00:10:08.544Z,2.22
2023-01-12T00:15:08.370Z,2.30
2023-01-12T00:20:08.166Z,2.25
2023-01-12T00:25:07.967Z,2.60
2023-01-12T00:30:07.787Z,2.53
2023-01-12T00:35:08.592Z,2.65
2023-01-12T00:40:08.410Z,2.75
2023-01-12T00:45:08.196Z,2.60
2023-01-12T00:50:07.994Z,2.30
2023-01-12T00:55:07.780Z,2.33
2023-01-12T01:00:08.609Z,2.33
2023-01-12T01:05:08.328Z,2.95
2023-01-12T01:10:08.174Z,2.80
2023-01-12T01:15:07.987Z,2.67
2023-01-12T01:20:07.811Z,2.40
2023-01-12T01:25:08.602Z,2.60
2023-01-12T01:30:08.413Z,2.95
2023-01-12T01:35:08.209Z,2.75
2023-01-12T01:40:08.024Z,2.72
2023-01-12T01:45:07.831Z,2.55
2023-01-12T01:50:08.608Z,2.97
2023-01-12T01:55:08.487Z,3.10
2023-01-12T02:00:08.289Z,2.53
2023-01-12T02:05:08.076Z,2.38
2023-01-12T02:10:07.890Z,2.75
2023-01-12T02:15:08.683Z,2.47
2023-01-12T02:20:08.480Z,3.30
2023-01-12T02:25:08.288Z,2.45
2023-01-12T02:30:08.088Z,2.80
2023-01-12T02:35:07.885Z,2.65
2023-01-12T02:40:08.719Z,2.70
2023-01-12T02:45:18.519Z,0
2023-01-12T02:50:08.472Z,2.42
2023-01-12T02:55:08.326Z,2.75
2023-01-12T03:00:08.187Z,2.65
2023-01-12T03:05:08.037Z,3.38
2023-01-12T03:10:07.856Z,3.53
2023-01-12T03:15:08.630Z,3.72
2023-01-12T03:20:08.425Z,3.08
2023-01-12T03:25:08.207Z,3.65
2023-01-12T03:30:08.095Z,2.95
2023-01-12T03:35:07.907Z,2.88
2023-01-12T03:40:08.722Z,3.55
2023-01-12T03:45:08.531Z,2.83
2023-01-12T03:50:08.373Z,2.58
2023-01-12T03:55:08.179Z,3.00
2023-01-12T04:00:07.959Z,3.00
2023-01-12T04:05:07.791Z,2.80
2023-01-12T04:10:08.727Z,3.20
2023-01-12T04:15:08.501Z,2.65
2023-01-12T04:20:08.265Z,3.03
2023-01-12T04:25:09.775Z,2.85
2023-01-12T04:30:07.772Z,3.33
2023-01-12T04:35:08.591Z,3.20
2023-01-12T04:40:08.455Z,2.30
2023-01-12T04:45:08.241Z,2.72
2023-01-12T04:50:08.040Z,2.50
2023-01-12T04:55:07.817Z,2.20
2023-01-12T05:00:08.592Z,2.40
2023-01-12T05:05:02.731Z,2.00
2023-01-12T05:10:02.886Z,2.20
2023-01-12T05:15:02.962Z,2.00
2023-01-12T05:20:02.072Z,2.15
2023-01-12T05:25:01.976Z,2.28
2023-01-12T05:30:02.815Z,2.42
2023-01-12T05:35:03.120Z,2.47
2023-01-12T05:40:02.416Z,2.05
2023-01-12T05:45:02.404Z,2.25
2023-01-12T05:50:02.769Z,2.03
2023-01-12T05:55:03.762Z,2.05
2023-01-12T06:00:03.011Z,1.95
2023-01-12T06:05:02.332Z,2.10
2023-01-12T06:10:02.559Z,1.83
2023-01-12T06:15:02.836Z,1.67
2023-01-12T06:20:03.115Z,1.85
2023-01-12T06:25:02.609Z,1.75
2023-01-12T06:30:02.788Z,1.77
2023-01-12T06:35:13.973Z,1.58
2023-01-12T06:40:02.568Z,2.10
2023-01-12T06:45:02.644Z,2.03
2023-01-12T06:50:02.993Z,1.60
2023-01-12T06:55:02.161Z,2.22
2023-01-12T07:00:02.373Z,1.85
2023-01-12T07:05:02.479Z,1.70
2023-01-12T07:10:02.502Z,1.70
2023-01-12T07:15:02.500Z,1.50
2023-01-12T07:20:02.634Z,1.52
2023-01-12T07:25:02.731Z,1.70
2023-01-12T07:30:02.726Z,1.85
2023-01-12T07:35:02.750Z,1.52
2023-01-12T07:40:02.922Z,1.45
2023-01-12T07:45:03.197Z,1.70
2023-01-12T07:50:03.048Z,1.58
2023-01-12T07:55:02.186Z,1.30
2023-01-12T08:00:02.316Z,1.70
2023-01-12T08:05:02.547Z,1.65
2023-01-12T08:10:03.306Z,1.50
2023-01-12T08:15:02.530Z,1.25
2023-01-12T08:20:02.650Z,1.42
2023-01-12T08:25:02.735Z,1.75
2023-01-12T08:30:03.451Z,1.85
2023-01-12T08:35:02.515Z,1.40
2023-01-12T08:40:02.739Z,1.35
2023-01-12T08:45:06.092Z,1.25
2023-01-12T08:50:02.445Z,1.13
2023-01-12T08:55:02.549Z,1.10
2023-01-12T09:00:02.660Z,1.20
2023-01-12T09:05:02.766Z,1.10
2023-01-12T09:10:03.175Z,1.10
2023-01-12T09:15:02.899Z,0.98
2023-01-12T09:20:03.127Z,0.90
2023-01-12T09:25:02.640Z,1.10
2023-01-12T09:30:02.820Z,1.10
2023-01-12T09:35:02.947Z,1.10
2023-01-12T09:40:02.157Z,1.00
2023-01-12T09:45:02.330Z,1.05
2023-01-12T09:50:11.001Z,1.20
2023-01-12T09:55:03.188Z,1.10
2023-01-12T10:00:02.545Z,1.23
2023-01-12T10:05:02.521Z,1.10
2023-01-12T10:10:02.734Z,0.85
2023-01-12T10:15:02.863Z,1.08
2023-01-12T10:20:03.104Z,1.05
2023-01-12T10:25:02.245Z,1.00
2023-01-12T10:30:02.607Z,1.05
2023-01-12T10:35:02.769Z,0.95
2023-01-12T10:40:03.219Z,1.10
2023-01-12T10:45:02.464Z,1.20
2023-01-12T10:50:04.659Z,0.98
2023-01-12T10:55:03.879Z,1.30
2023-01-12T11:00:02.945Z,1.10
2023-01-12T11:05:03.290Z,1.17
2023-01-12T11:10:02.409Z,1.00
2023-01-12T11:15:12.558Z,0
2023-01-12T11:20:02.704Z,0.90
2023-01-12T11:25:03.200Z,0.93
2023-01-12T11:30:02.720Z,0.80
2023-01-12T11:35:04.704Z,0.70
2023-01-12T11:40:02.913Z,0.77
2023-01-12T11:45:03.001Z,0.70
2023-01-12T11:50:02.148Z,0.70
2023-01-12T11:55:02.211Z,0.70
2023-01-12T12:00:13.339Z,0
2023-01-12T12:05:02.420Z,0.80
2023-01-12T12:10:02.554Z,0.80
2023-01-12T12:15:02.556Z,0.70
2023-01-12T12:20:02.675Z,0.88
2023-01-12T12:25:03.149Z,0.80
2023-01-12T12:30:02.291Z,0.95
2023-01-12T12:35:03.119Z,0.73
2023-01-12T12:40:02.831Z,0.80
2023-01-12T12:45:03.841Z,0.60
2023-01-12T12:50:03.100Z,0.70
2023-01-12T12:55:02.230Z,0.93
2023-01-12T13:00:02.410Z,0.82
2023-01-12T13:05:05.200Z,0.88
2023-01-12T13:10:09.620Z,0.80
2023-01-12T13:15:12.717Z,0
2023-01-12T13:20:08.491Z,0.90
2023-01-12T13:25:02.909Z,0.90
2023-01-12T13:30:03.072Z,1.00
2023-01-12T13:35:02.408Z,0.90
2023-01-12T13:40:02.867Z,1.00
2023-01-12T13:45:03.211Z,0.90
2023-01-12T13:50:03.155Z,0.90
2023-01-12T13:55:02.330Z,1.00
2023-01-12T14:00:10.219Z,0.80
2023-01-12T14:05:02.447Z,0.95
2023-01-12T14:10:03.620Z,0.90
2023-01-12T14:15:03.200Z,1.00
2023-01-12T14:20:02.606Z,1.00
2023-01-12T14:25:05.204Z,0.90
2023-01-12T14:30:03.443Z,0.90
2023-01-12T14:35:02.990Z,1.02
2023-01-12T14:40:04.212Z,1.10
2023-01-12T14:45:09.314Z,1.10
2023-01-12T14:50:13.080Z,0.95
2023-01-12T14:55:02.344Z,1.02
2023-01-12T15:00:02.378Z,1.15
2023-01-12T15:05:02.928Z,1.00
2023-01-12T15:10:02.313Z,1.00
2023-01-12T15:15:03.544Z,1.00
2023-01-12T15:20:02.904Z,1.02
2023-01-12T15:25:02.980Z,0.90
2023-01-12T15:30:02.410Z,0.80
2023-01-12T15:35:02.374Z,0.85
2023-01-12T15:40:02.436Z,1.05
2023-01-12T15:45:03.273Z,1.17
2023-01-12T15:50:02.518Z,1.20
2023-01-12T15:55:02.664Z,1.00
2023-01-12T16:00:03.425Z,1.17
2023-01-12T16:05:02.381Z,1.10
2023-01-12T16:10:02.497Z,1.10
2023-01-12T16:15:02.601Z,1.02
2023-01-12T16:20:02.660Z,1.00
2023-01-12T16:25:03.317Z,1.27
2023-01-12T16:30:02.423Z,1.20
2023-01-12T16:35:02.471Z,1.20
2023-01-12T16:40:02.678Z,1.10
2023-01-12T16:45:03.704Z,1.33
2023-01-12T16:50:02.779Z,1.42
2023-01-12T16:55:02.935Z,1.23
2023-01-12T17:00:03.372Z,1.40
2023-01-12T17:05:02.578Z,1.40
2023-01-12T17:10:03.514Z,1.40
2023-01-12T17:15:02.675Z,1.60
2023-01-12T17:20:03.389Z,1.42
2023-01-12T17:25:02.684Z,1.88
2023-01-12T17:30:03.004Z,1.45
2023-01-12T17:35:02.585Z,2.20
2023-01-12T17:40:02.862Z,1.50
2023-01-12T17:45:03.256Z,2.00
2023-01-12T17:50:02.433Z,1.33
2023-01-12T17:55:03.625Z,1.50
2023-01-12T18:00:02.955Z,2.17
2023-01-12T18:05:04.019Z,1.90
2023-01-12T18:10:02.115Z,1.50
2023-01-12T18:15:03.276Z,1.50
2023-01-12T18:20:02.227Z,1.80
2023-01-12T18:25:02.107Z,1.45
2023-01-12T18:30:02.170Z,1.50
2023-01-12T18:35:02.899Z,1.33
2023-01-12T18:40:03.038Z,1.40
2023-01-12T18:45:02.582Z,1.52
2023-01-12T18:50:02.501Z,1.63
2023-01-12T18:55:02.830Z,1.75
2023-01-12T19:00:02.934Z,1.80
2023-01-12T19:05:05.685Z,1.77
2023-01-12T19:10:03.103Z,1.48
2023-01-12T19:15:03.266Z,1.52
2023-01-12T19:20:02.591Z,1.50
2023-01-12T19:25:02.695Z,1.70
2023-01-12T19:30:03.028Z,1.60
2023-01-12T19:35:10.629Z,1.40
2023-01-12T19:40:02.797Z,1.65
2023-01-12T19:45:03.107Z,1.67
2023-01-12T19:50:02.333Z,1.60
2023-01-12T19:55:02.451Z,1.40
2023-01-12T20:00:02.736Z,1.52
2023-01-12T20:05:03.343Z,1.50
2023-01-12T20:10:03.124Z,1.60
2023-01-12T20:15:03.890Z,1.50
2023-01-12T20:20:07.438Z,1.65
2023-01-12T20:25:03.387Z,1.77
2023-01-12T20:30:02.699Z,1.50
2023-01-12T20:35:03.118Z,1.70
2023-01-12T20:40:02.354Z,1.60
2023-01-12T20:45:02.484Z,1.50
2023-01-12T20:50:02.444Z,1.60
2023-01-12T20:55:04.578Z,1.95
2023-01-12T21:00:05.879Z,2.25
2023-01-12T21:05:02.903Z,1.80
2023-01-12T21:10:03.523Z,2.08
2023-01-12T21:15:03.489Z,1.73
2023-01-12T21:20:02.656Z,1.70
2023-01-12T21:25:02.632Z,1.70
2023-01-12T21:30:04.616Z,1.90
2023-01-12T21:35:02.802Z,1.88
2023-01-12T21:40:02.852Z,1.30
2023-01-12T21:45:03.539Z,1.67
2023-01-12T21:50:03.072Z,1.60
2023-01-12T21:55:02.055Z,1.60
2023-01-12T22:00:02.644Z,1.95
2023-01-12T22:05:15.503Z,1.60
2023-01-12T22:10:08.389Z,1.60
2023-01-12T22:15:08.193Z,1.60
2023-01-12T22:20:08.043Z,1.60
2023-01-12T22:25:07.863Z,1.45
2023-01-12T22:30:08.678Z,1.50
2023-01-12T22:35:08.453Z,1.40
2023-01-12T22:40:08.246Z,1.60
2023-01-12T22:45:08.058Z,1.58
2023-01-12T22:50:07.868Z,1.40
2023-01-12T22:55:08.684Z,1.80
2023-01-12T23:00:08.495Z,1.20
2023-01-12T23:05:08.241Z,1.35
2023-01-12T23:10:08.057Z,1.30
2023-01-12T23:15:07.870Z,1.20
2023-01-12T23:20:08.668Z,1.27
2023-01-12T23:25:08.438Z,1.42
2023-01-12T23:30:08.248Z,1.10
2023-01-12T23:35:08.002Z,1.55
2023-01-12T23:40:07.775Z,1.17
2023-01-12T23:45:08.522Z,1.27
2023-01-12T23:50:08.283Z,1.30
2023-01-12T23:55:08.066Z,1.20
